createdAt,value
2018-05-25T00:01:17.724Z,14.90
2018-05-25T00:03:45.948Z,19.67
2018-05-25T00:06:14.965Z,12.37
2018-05-25T00:08:43.174Z,13.17
2018-05-25T00:11:11.404Z,13.20
2018-05-25T00:13:39.688Z,10.03
2018-05-25T00:16:07.917Z,14.77
2018-05-25T00:18:36.141Z,24.07
2018-05-25T00:21:04.369Z,22.70
2018-05-25T00:23:32.684Z,16.23
2018-05-25T00:26:00.920Z,17.23
2018-05-25T00:28:29.151Z,18.97
2018-05-25T00:30:57.409Z,14.77
2018-05-25T00:33:25.621Z,14.70
2018-05-25T00:35:53.857Z,16.07
2018-05-25T00:38:22.141Z,12.57
2018-05-25T00:40:50.361Z,12.37
2018-05-25T00:43:19.109Z,13.67
2018-05-25T00:45:47.360Z,13.23
2018-05-25T00:48:16.362Z,13.63
2018-05-25T00:50:44.585Z,16.30
2018-05-25T00:53:12.811Z,12.00
2018-05-25T00:55:41.095Z,11.03
2018-05-25T00:58:09.301Z,12.47
2018-05-25T01:00:37.524Z,13.17
2018-05-25T01:03:06.892Z,13.00
2018-05-25T01:05:35.216Z,11.20
2018-05-25T01:08:03.438Z,15.43
2018-05-25T01:10:31.660Z,20.73
2018-05-25T01:13:00.041Z,18.13
2018-05-25T01:15:28.264Z,18.37
2018-05-25T01:17:56.505Z,20.33
2018-05-25T01:20:24.782Z,15.47
2018-05-25T01:22:53.036Z,18.10
2018-05-25T01:25:21.298Z,21.40
2018-05-25T01:27:50.296Z,21.37
2018-05-25T01:30:20.187Z,19.40
2018-05-25T01:32:48.422Z,19.40
2018-05-25T01:35:16.640Z,21.73
2018-05-25T01:37:44.877Z,20.23
2018-05-25T01:40:13.487Z,21.77
2018-05-25T01:42:41.700Z,19.40
2018-05-25T01:45:09.947Z,19.20
2018-05-25T01:47:38.177Z,19.63
2018-05-25T01:50:06.641Z,21.30
2018-05-25T01:52:34.920Z,21.83
2018-05-25T01:55:03.141Z,20.53
2018-05-25T01:57:31.364Z,17.77
2018-05-25T01:59:59.588Z,19.97
2018-05-25T02:02:27.834Z,20.50
2018-05-25T02:04:56.095Z,17.70
2018-05-25T02:07:24.336Z,20.13
2018-05-25T02:09:53.325Z,18.67
2018-05-25T02:12:21.561Z,16.33
2018-05-25T02:14:49.784Z,19.90
2018-05-25T02:17:18.788Z,18.90
2018-05-25T02:19:47.018Z,19.43
2018-05-25T02:22:15.336Z,19.23
2018-05-25T02:24:43.616Z,17.47
2018-05-25T02:27:11.866Z,22.23
2018-05-25T02:29:40.096Z,16.70
2018-05-25T02:32:08.336Z,14.73
2018-05-25T02:34:37.319Z,15.33
2018-05-25T02:37:06.336Z,17.93
2018-05-25T02:39:34.544Z,15.83
2018-05-25T02:42:02.784Z,18.30
2018-05-25T02:44:30.997Z,17.57
2018-05-25T02:46:59.222Z,14.87
2018-05-25T02:49:27.471Z,15.43
2018-05-25T02:51:55.672Z,14.30
2018-05-25T02:54:24.769Z,13.93
2018-05-25T02:56:53.044Z,13.70
2018-05-25T02:59:21.272Z,22.40
2018-05-25T03:01:49.599Z,18.10
2018-05-25T03:04:17.844Z,22.00
2018-05-25T03:06:46.057Z,18.90
2018-05-25T03:09:14.381Z,19.13
2018-05-25T03:11:42.600Z,20.43
2018-05-25T03:14:10.835Z,23.23
2018-05-25T03:16:39.057Z,20.33
2018-05-25T03:19:07.292Z,23.03
2018-05-25T03:21:35.520Z,25.53
2018-05-25T03:24:03.761Z,24.63
2018-05-25T03:26:32.769Z,27.23
2018-05-25T03:29:01.057Z,26.13
2018-05-25T03:31:29.282Z,26.27
2018-05-25T03:33:57.506Z,28.47
2018-05-25T03:36:25.724Z,27.87
2018-05-25T03:38:53.949Z,27.97
2018-05-25T03:41:22.168Z,28.87
2018-05-25T03:43:50.502Z,28.23
2018-05-25T03:46:18.725Z,27.17
2018-05-25T03:48:46.957Z,28.87
2018-05-25T03:51:15.172Z,28.17
2018-05-25T03:53:44.920Z,28.33
2018-05-25T03:56:13.904Z,27.77
2018-05-25T03:58:54.848Z,30.20
2018-05-25T04:01:35.006Z,27.77
2018-05-25T04:04:03.223Z,28.10
2018-05-25T04:06:31.440Z,26.40
2018-05-25T04:08:59.671Z,26.30
2018-05-25T04:11:27.890Z,24.33
2018-05-25T04:13:56.188Z,21.57
2018-05-25T04:16:24.400Z,22.23
2018-05-25T04:18:52.632Z,22.40
2018-05-25T04:21:20.856Z,20.90
2018-05-25T04:23:49.096Z,20.03
2018-05-25T04:26:18.381Z,19.00
2018-05-25T04:28:46.606Z,20.77
2018-05-25T04:31:14.832Z,19.77
2018-05-25T04:33:43.241Z,20.63
2018-05-25T04:36:11.461Z,23.57
2018-05-25T04:38:39.700Z,24.63
2018-05-25T04:41:07.919Z,31.13
2018-05-25T04:43:36.128Z,28.30
2018-05-25T04:46:05.125Z,29.67
2018-05-25T04:48:34.128Z,27.67
2018-05-25T04:51:02.366Z,29.10
2018-05-25T04:53:30.581Z,35.57
2018-05-25T04:55:58.948Z,37.87
2018-05-25T04:58:27.957Z,36.97
2018-05-25T05:00:56.231Z,38.07
2018-05-25T05:03:25.000Z,39.20
2018-05-25T05:05:53.993Z,42.23
2018-05-25T05:08:22.268Z,44.40
2018-05-25T05:10:51.271Z,40.10
2018-05-25T05:13:19.481Z,44.23
2018-05-25T05:15:47.713Z,43.50
2018-05-25T05:18:16.708Z,41.73
2018-05-25T05:20:44.960Z,49.13
2018-05-25T05:23:13.349Z,47.10
2018-05-25T05:25:42.333Z,48.63
2018-05-25T05:28:11.461Z,48.90
2018-05-25T05:30:39.706Z,59.27
2018-05-25T05:33:08.709Z,69.87
2018-05-25T05:35:37.711Z,72.60
2018-05-25T05:38:06.008Z,67.87
2018-05-25T05:40:34.230Z,70.00
2018-05-25T05:43:03.339Z,73.63
2018-05-25T05:45:32.360Z,74.80
2018-05-25T05:48:00.581Z,75.00
2018-05-25T05:50:28.904Z,82.77
2018-05-25T05:52:57.881Z,75.27
2018-05-25T05:55:26.892Z,79.17
2018-05-25T05:57:55.169Z,84.93
2018-05-25T06:00:23.364Z,77.67
2018-05-25T06:02:51.585Z,72.07
2018-05-25T06:05:19.813Z,63.93
2018-05-25T06:07:48.029Z,70.87
2018-05-25T06:10:16.269Z,71.10
2018-05-25T06:12:44.489Z,78.87
2018-05-25T06:15:13.489Z,83.40
2018-05-25T06:17:42.490Z,84.53
2018-05-25T06:20:11.692Z,87.20
2018-05-25T06:22:39.913Z,92.70
2018-05-25T06:25:08.158Z,95.20
2018-05-25T06:27:36.409Z,99.73
2018-05-25T06:30:05.712Z,101.83
2018-05-25T06:32:34.728Z,102.50
2018-05-25T06:35:02.944Z,93.27
2018-05-25T06:37:31.264Z,97.73
2018-05-25T06:39:59.509Z,99.03
2018-05-25T06:42:27.753Z,88.57
2018-05-25T06:44:55.985Z,89.90
2018-05-25T06:47:24.277Z,84.43
2018-05-25T06:49:52.488Z,88.00
2018-05-25T06:52:20.716Z,84.20
2018-05-25T06:54:48.933Z,93.53
2018-05-25T06:57:17.180Z,91.03
2018-05-25T06:59:45.421Z,102.90
2018-05-25T07:02:14.418Z,91.90
2018-05-25T07:04:43.494Z,101.40
2018-05-25T07:07:11.754Z,103.10
2018-05-25T07:09:39.982Z,112.47
2018-05-25T07:12:08.225Z,107.93
2018-05-25T07:14:37.207Z,106.77
2018-05-25T07:17:05.569Z,95.73
2018-05-25T07:19:33.740Z,84.87
2018-05-25T07:22:01.970Z,72.00
2018-05-25T07:24:30.185Z,75.73
2018-05-25T07:26:58.424Z,72.37
2018-05-25T07:29:26.653Z,72.77
2018-05-25T07:31:54.892Z,70.50
2018-05-25T07:34:23.104Z,66.70
2018-05-25T07:36:51.354Z,69.07
2018-05-25T07:39:19.593Z,70.37
2018-05-25T07:41:47.822Z,69.10
2018-05-25T07:44:16.032Z,70.33
2018-05-25T07:46:45.132Z,67.47
2018-05-25T07:49:13.357Z,71.10
2018-05-25T07:51:41.592Z,70.27
2018-05-25T07:54:09.812Z,70.77
2018-05-25T07:56:38.052Z,67.17
2018-05-25T07:59:06.418Z,62.40
2018-05-25T08:01:35.415Z,67.57
2018-05-25T08:04:03.647Z,65.90
2018-05-25T08:06:31.957Z,65.47
2018-05-25T08:09:00.233Z,59.57
2018-05-25T08:11:28.464Z,55.97
2018-05-25T08:13:58.228Z,53.07
2018-05-25T08:16:26.523Z,53.83
2018-05-25T08:18:54.732Z,55.93
2018-05-25T08:21:22.961Z,54.13
2018-05-25T08:23:51.191Z,51.13
2018-05-25T08:26:19.482Z,50.93
2018-05-25T08:28:48.492Z,49.40
2018-05-25T08:31:16.721Z,51.70
2018-05-25T08:33:44.957Z,49.13
2018-05-25T08:36:13.180Z,44.83
2018-05-25T08:38:41.486Z,49.27
2018-05-25T08:41:09.703Z,47.53
2018-05-25T08:43:37.949Z,46.73
2018-05-25T08:46:06.208Z,41.73
2018-05-25T08:48:34.440Z,50.30
2018-05-25T08:51:02.687Z,38.93
2018-05-25T08:53:30.937Z,38.20
2018-05-25T08:55:59.197Z,36.40
2018-05-25T08:58:28.205Z,38.67
2018-05-25T09:00:56.445Z,39.53
2018-05-25T09:03:24.673Z,41.40
2018-05-25T09:05:52.937Z,41.70
2018-05-25T09:08:21.328Z,37.30
2018-05-25T09:10:50.155Z,38.87
2018-05-25T09:13:18.412Z,40.17
2018-05-25T09:15:46.632Z,38.30
2018-05-25T09:18:15.627Z,40.07
2018-05-25T09:20:44.633Z,40.83
2018-05-25T09:23:13.133Z,35.67
2018-05-25T09:25:41.357Z,34.27
2018-05-25T09:28:09.620Z,40.40
2018-05-25T09:30:38.837Z,37.77
2018-05-25T09:33:07.843Z,39.90
2018-05-25T09:35:36.825Z,41.87
2018-05-25T09:38:05.828Z,37.40
2018-05-25T09:40:34.841Z,43.97
2018-05-25T09:43:03.114Z,46.27
2018-05-25T09:45:31.327Z,45.20
2018-05-25T09:47:59.565Z,49.50
2018-05-25T09:50:27.781Z,44.90
2018-05-25T09:52:56.019Z,41.80
2018-05-25T09:55:24.240Z,46.63
2018-05-25T09:57:57.328Z,45.77
2018-05-25T10:00:25.545Z,46.37
2018-05-25T10:02:53.765Z,46.00
2018-05-25T10:05:21.992Z,47.73
2018-05-25T10:07:50.276Z,43.30
2018-05-25T10:10:18.509Z,41.70
2018-05-25T10:12:46.817Z,40.50
2018-05-25T10:15:15.099Z,38.90
2018-05-25T10:17:43.321Z,48.07
2018-05-25T10:20:11.780Z,41.57
2018-05-25T10:22:40.014Z,43.20
2018-05-25T10:25:09.005Z,37.33
2018-05-25T10:27:37.986Z,42.37
2018-05-25T10:30:06.652Z,36.77
2018-05-25T10:32:34.877Z,38.87
2018-05-25T10:35:03.124Z,34.63
2018-05-25T10:37:32.834Z,42.03
2018-05-25T10:40:01.879Z,35.80
2018-05-25T10:42:30.159Z,36.07
2018-05-25T10:44:58.388Z,38.20
2018-05-25T10:47:27.399Z,41.63
2018-05-25T10:49:55.679Z,49.57
2018-05-25T10:52:23.896Z,49.50
2018-05-25T10:54:53.662Z,52.93
2018-05-25T10:57:21.879Z,79.43
2018-05-25T10:59:50.104Z,53.07
2018-05-25T11:02:18.349Z,53.07
2018-05-25T11:04:46.588Z,109.70
2018-05-25T11:07:14.796Z,41.67
2018-05-25T11:09:43.110Z,62.27
2018-05-25T11:12:11.332Z,35.30
2018-05-25T11:14:39.650Z,43.57
2018-05-25T11:17:07.873Z,40.30
2018-05-25T11:19:36.106Z,42.17
2018-05-25T11:22:04.407Z,40.90
2018-05-25T11:24:32.633Z,34.20
2018-05-25T11:27:01.728Z,31.03
2018-05-25T11:29:29.908Z,34.57
2018-05-25T11:31:58.927Z,32.20
2018-05-25T11:34:27.157Z,37.20
2018-05-25T11:36:55.459Z,33.20
2018-05-25T11:39:23.701Z,37.63
2018-05-25T11:41:52.008Z,29.30
2018-05-25T11:44:20.254Z,26.13
2018-05-25T11:46:48.581Z,28.40
2018-05-25T11:49:16.958Z,30.53
2018-05-25T11:51:45.203Z,27.20
2018-05-25T11:54:14.178Z,25.50
2018-05-25T11:56:42.413Z,26.23
2018-05-25T11:59:10.663Z,27.07
2018-05-25T12:01:38.906Z,27.10
2018-05-25T12:04:07.114Z,23.63
2018-05-25T12:06:35.376Z,23.37
2018-05-25T12:09:05.401Z,23.50
2018-05-25T12:11:33.676Z,17.53
2018-05-25T12:14:01.920Z,17.77
2018-05-25T12:16:30.260Z,24.47
2018-05-25T12:18:58.631Z,21.70
2018-05-25T12:21:26.884Z,20.13
2018-05-25T12:23:55.869Z,17.03
2018-05-25T12:26:24.868Z,49.30
2018-05-25T12:28:53.112Z,51.77
2018-05-25T12:31:21.352Z,65.13
2018-05-25T12:33:49.576Z,37.27
2018-05-25T12:36:18.593Z,61.87
2018-05-25T12:38:46.822Z,101.60
2018-05-25T12:41:15.849Z,23.67
2018-05-25T12:43:44.128Z,70.93
2018-05-25T12:46:12.404Z,41.57
2018-05-25T12:48:40.626Z,40.47
2018-05-25T12:51:08.857Z,27.67
2018-05-25T12:53:37.130Z,20.10
2018-05-25T12:56:05.372Z,16.63
2018-05-25T12:58:33.584Z,15.03
2018-05-25T13:01:01.821Z,14.40
2018-05-25T13:03:30.464Z,11.07
2018-05-25T13:05:58.898Z,12.97
2018-05-25T13:08:27.890Z,11.50
2018-05-25T13:10:56.872Z,9.53
2018-05-25T13:13:25.889Z,12.93
2018-05-25T13:15:54.112Z,11.50
2018-05-25T13:18:22.365Z,11.43
2018-05-25T13:20:50.633Z,9.87
2018-05-25T13:23:18.888Z,11.73
2018-05-25T13:25:47.169Z,16.67
2018-05-25T13:28:15.388Z,12.23
2018-05-25T13:30:43.677Z,13.63
2018-05-25T13:33:11.938Z,10.57
2018-05-25T13:35:40.170Z,11.50
2018-05-25T13:38:08.429Z,12.47
2018-05-25T13:40:36.633Z,10.17
2018-05-25T13:43:05.257Z,10.97
2018-05-25T13:45:33.641Z,10.47
2018-05-25T13:48:01.874Z,10.53
2018-05-25T13:50:30.084Z,14.37
2018-05-25T13:52:58.319Z,10.03
2018-05-25T13:55:26.536Z,64.97
2018-05-25T13:57:54.768Z,122.50
2018-05-25T14:00:23.029Z,77.50
2018-05-25T14:02:52.238Z,43.27
2018-05-25T14:05:20.558Z,84.73
2018-05-25T14:07:49.560Z,31.50
2018-05-25T14:10:18.088Z,82.57
2018-05-25T14:12:46.361Z,59.27
2018-05-25T14:15:14.628Z,49.73
2018-05-25T14:17:42.900Z,16.67
2018-05-25T14:20:11.440Z,17.87
2018-05-25T14:22:39.675Z,15.63
2018-05-25T14:25:07.897Z,11.80
2018-05-25T14:27:36.203Z,11.43
2018-05-25T14:30:04.693Z,9.70
2018-05-25T14:32:32.897Z,8.00
2018-05-25T14:35:01.097Z,7.23
2018-05-25T14:37:29.321Z,7.63
2018-05-25T14:39:57.529Z,8.70
2018-05-25T14:42:25.831Z,7.50
2018-05-25T14:44:54.138Z,10.17
2018-05-25T14:47:22.365Z,7.13
2018-05-25T14:49:50.581Z,6.80
2018-05-25T14:52:19.566Z,7.83
2018-05-25T14:54:48.569Z,6.83
2018-05-25T14:57:16.799Z,7.67
2018-05-25T14:59:45.004Z,6.53
2018-05-25T15:02:14.068Z,5.60
2018-05-25T15:04:42.981Z,7.27
2018-05-25T15:07:11.997Z,7.10
2018-05-25T15:09:40.254Z,9.60
2018-05-25T15:12:08.438Z,8.40
2018-05-25T15:14:37.441Z,5.75
2018-05-25T15:17:06.514Z,4.45
2018-05-25T15:19:35.487Z,16.52
2018-05-25T15:22:03.997Z,10.90
2018-05-25T15:24:32.210Z,12.05
2018-05-25T15:27:00.440Z,9.57
2018-05-25T15:29:29.440Z,6.40
2018-05-25T15:31:58.499Z,6.37
2018-05-25T15:34:26.653Z,5.40
2018-05-25T15:36:54.864Z,8.07
2018-05-25T15:39:23.852Z,5.10
2018-05-25T15:41:52.844Z,4.93
2018-05-25T15:44:21.177Z,4.80
2018-05-25T15:46:49.390Z,20.42
2018-05-25T15:49:18.379Z,6.80
2018-05-25T15:51:46.595Z,11.00
2018-05-25T15:54:14.861Z,4.18
2018-05-25T15:56:43.073Z,4.53
2018-05-25T15:59:11.310Z,4.50
2018-05-25T16:01:40.484Z,5.07
2018-05-25T16:04:08.705Z,5.22
2018-05-25T16:06:36.936Z,5.72
2018-05-25T16:09:05.945Z,4.28
2018-05-25T16:11:34.916Z,4.20
2018-05-25T16:14:04.324Z,4.43
2018-05-25T16:16:33.303Z,4.67
2018-05-25T16:19:01.533Z,27.60
2018-05-25T16:21:29.786Z,4.67
2018-05-25T16:23:58.064Z,4.90
2018-05-25T16:26:26.265Z,4.50
2018-05-25T16:28:54.530Z,5.00
2018-05-25T16:31:23.464Z,4.47
2018-05-25T16:33:53.360Z,3.97
2018-05-25T16:36:21.572Z,5.67
2018-05-25T16:38:50.536Z,4.53
2018-05-25T16:41:18.759Z,4.20
2018-05-25T16:43:47.004Z,4.23
2018-05-25T16:46:15.230Z,4.50
2018-05-25T16:48:43.425Z,4.53
2018-05-25T16:51:11.631Z,4.27
2018-05-25T16:53:39.941Z,3.77
2018-05-25T16:56:08.354Z,4.50
2018-05-25T16:58:36.576Z,3.73
2018-05-25T17:01:05.601Z,6.33
2018-05-25T17:03:33.829Z,5.63
2018-05-25T17:06:02.820Z,4.33
2018-05-25T17:08:31.821Z,3.97
2018-05-25T17:11:00.797Z,4.80
2018-05-25T17:13:29.108Z,3.57
2018-05-25T17:15:58.066Z,4.23
2018-05-25T17:18:26.287Z,4.23
2018-05-25T17:20:54.493Z,4.77
2018-05-25T17:23:23.734Z,3.60
2018-05-25T17:25:52.714Z,3.97
2018-05-25T17:28:21.767Z,3.80
2018-05-25T17:30:49.978Z,4.00
2018-05-25T17:33:18.180Z,4.97
2018-05-25T17:35:46.377Z,3.70
2018-05-25T17:38:14.599Z,4.20
2018-05-25T17:40:43.569Z,5.37
2018-05-25T17:43:11.960Z,5.17
2018-05-25T17:45:40.157Z,5.43
2018-05-25T17:48:09.140Z,4.10
2018-05-25T17:50:37.438Z,5.40
2018-05-25T17:53:05.663Z,6.50
2018-05-25T17:55:33.888Z,4.47
2018-05-25T17:58:02.081Z,5.10
2018-05-25T18:00:30.314Z,4.77
2018-05-25T18:02:59.285Z,6.40
2018-05-25T18:05:27.519Z,4.30
2018-05-25T18:07:55.706Z,5.33
2018-05-25T18:10:23.979Z,5.30
2018-05-25T18:12:52.919Z,4.33
2018-05-25T18:15:21.121Z,4.80
2018-05-25T18:17:49.381Z,9.00
2018-05-25T18:20:17.657Z,11.87
2018-05-25T18:22:45.869Z,8.27
2018-05-25T18:25:14.107Z,13.23
2018-05-25T18:27:42.333Z,15.50
2018-05-25T18:30:10.992Z,5.10
2018-05-25T18:32:39.198Z,8.30
2018-05-25T18:35:07.509Z,26.07
2018-05-25T18:37:35.775Z,9.00
2018-05-25T18:40:04.537Z,10.27
2018-05-25T18:42:32.752Z,17.00
2018-05-25T18:45:00.983Z,41.60
2018-05-25T18:47:29.196Z,28.37
2018-05-25T18:49:57.456Z,21.07
2018-05-25T18:52:25.652Z,19.63
2018-05-25T18:54:53.928Z,23.97
2018-05-25T18:57:22.906Z,22.77
2018-05-25T18:59:51.171Z,15.17
2018-05-25T19:02:19.374Z,14.77
2018-05-25T19:04:47.679Z,17.43
2018-05-25T19:07:15.886Z,18.40
2018-05-25T19:09:44.170Z,16.97
2018-05-25T19:12:12.410Z,19.90
2018-05-25T19:14:40.628Z,18.40
2018-05-25T19:17:09.620Z,19.73
2018-05-25T19:19:38.604Z,17.47
2018-05-25T19:22:07.608Z,17.37
2018-05-25T19:24:35.851Z,18.23
2018-05-25T19:27:04.180Z,15.63
2018-05-25T19:29:32.396Z,11.77
2018-05-25T19:32:00.732Z,9.43
2018-05-25T19:34:28.980Z,10.57
2018-05-25T19:36:57.966Z,10.87
2018-05-25T19:39:26.226Z,11.03
2018-05-25T19:41:54.445Z,10.63
2018-05-25T19:44:22.713Z,10.20
2018-05-25T19:46:51.688Z,10.83
2018-05-25T19:49:20.676Z,13.93
2018-05-25T19:51:49.729Z,11.83
2018-05-25T19:54:18.032Z,9.50
2018-05-25T19:56:46.257Z,9.00
2018-05-25T19:59:14.554Z,10.27
2018-05-25T20:01:42.816Z,12.20
2018-05-25T20:04:11.030Z,11.60
2018-05-25T20:06:39.278Z,21.87
2018-05-25T20:09:07.514Z,31.47
2018-05-25T20:11:35.751Z,64.47
2018-05-25T20:14:04.056Z,79.77
2018-05-25T20:16:32.330Z,110.90
2018-05-25T20:19:00.537Z,51.33
2018-05-25T20:21:28.764Z,45.43
2018-05-25T20:23:57.770Z,67.70
2018-05-25T20:26:26.757Z,44.83
2018-05-25T20:28:55.746Z,59.57
2018-05-25T20:31:24.028Z,14.10
2018-05-25T20:33:53.018Z,12.07
2018-05-25T20:36:21.411Z,11.27
2018-05-25T20:38:49.671Z,11.13
2018-05-25T20:41:18.726Z,8.90
2018-05-25T20:43:46.943Z,8.63
2018-05-25T20:46:16.159Z,9.00
2018-05-25T20:48:44.344Z,7.50
2018-05-25T20:51:12.584Z,8.17
2018-05-25T20:53:41.556Z,7.80
2018-05-25T20:56:09.772Z,8.03
2018-05-25T20:58:37.991Z,9.03
2018-05-25T21:01:06.241Z,10.37
2018-05-25T21:03:34.533Z,6.33
2018-05-25T21:06:02.869Z,6.20
2018-05-25T21:08:31.081Z,6.10
2018-05-25T21:10:59.334Z,6.33
2018-05-25T21:13:27.603Z,10.10
2018-05-25T21:15:55.872Z,7.50
2018-05-25T21:18:24.089Z,5.97
2018-05-25T21:20:52.308Z,5.90
2018-05-25T21:23:21.290Z,5.90
2018-05-25T21:25:49.597Z,5.93
2018-05-25T21:28:17.875Z,6.00
2018-05-25T21:30:46.143Z,7.53
2018-05-25T21:33:14.374Z,5.87
2018-05-25T21:35:43.372Z,7.67
2018-05-25T21:38:11.612Z,6.03
2018-05-25T21:40:39.832Z,6.67
2018-05-25T21:43:08.337Z,6.17
2018-05-25T21:45:36.579Z,7.53
2018-05-25T21:48:04.821Z,6.10
2018-05-25T21:50:33.259Z,8.00
2018-05-25T21:53:02.257Z,6.57
2018-05-25T21:55:30.646Z,6.70
2018-05-25T21:57:58.934Z,6.03
2018-05-25T22:00:30.100Z,8.43
2018-05-25T22:02:58.373Z,6.53
2018-05-25T22:05:26.580Z,16.13
2018-05-25T22:07:54.932Z,5.67
2018-05-25T22:10:23.149Z,6.33
2018-05-25T22:12:52.243Z,8.57
2018-05-25T22:15:21.236Z,10.03
2018-05-25T22:17:50.312Z,7.87
2018-05-25T22:20:18.663Z,7.17
2018-05-25T22:22:46.893Z,6.67
2018-05-25T22:25:16.080Z,8.70
2018-05-25T22:27:45.076Z,7.10
2018-05-25T22:30:14.552Z,33.13
2018-05-25T22:32:42.846Z,16.27
2018-05-25T22:35:11.107Z,31.20
2018-05-25T22:37:39.279Z,25.67
2018-05-25T22:40:07.763Z,47.13
2018-05-25T22:42:48.647Z,44.03
2018-05-25T22:45:29.453Z,136.97
2018-05-25T22:48:09.492Z,28.13
2018-05-25T22:50:49.557Z,44.53
2018-05-25T22:53:23.064Z,16.00
2018-05-25T22:55:51.296Z,23.73
2018-05-25T22:58:19.619Z,21.20
2018-05-25T23:00:47.857Z,28.83
2018-05-25T23:03:16.313Z,27.13
2018-05-25T23:05:45.290Z,30.90
2018-05-25T23:08:13.524Z,18.53
2018-05-25T23:10:41.753Z,16.43
2018-05-25T23:13:10.746Z,9.73
2018-05-25T23:15:38.951Z,10.80
2018-05-25T23:18:07.182Z,9.60
2018-05-25T23:20:36.896Z,10.43
2018-05-25T23:23:05.465Z,11.27
2018-05-25T23:25:33.679Z,8.23
2018-05-25T23:28:01.976Z,7.20
2018-05-25T23:30:30.191Z,8.70
2018-05-25T23:32:58.523Z,7.43
2018-05-25T23:35:26.796Z,7.60
2018-05-25T23:37:55.023Z,7.20
2018-05-25T23:40:23.232Z,8.20
2018-05-25T23:42:51.476Z,9.80
2018-05-25T23:45:21.369Z,11.90
2018-05-25T23:47:49.602Z,7.30
2018-05-25T23:50:17.805Z,7.93
2018-05-25T23:52:46.043Z,9.50
2018-05-25T23:55:15.053Z,10.27
2018-05-25T23:57:43.305Z,10.27
